createdAt,value
2023-02-26T00:02:16.869Z,1.10
2023-02-26T00:04:43.986Z,1.20
2023-02-26T00:07:10.962Z,0.30
2023-02-26T00:09:37.894Z,1.20
2023-02-26T00:12:04.994Z,1.20
2023-02-26T00:14:32.023Z,1.10
2023-02-26T00:17:15.917Z,1.10
2023-02-26T00:19:43.064Z,1.10
2023-02-26T00:22:10.241Z,1.20
2023-02-26T00:24:37.283Z,1.10
2023-02-26T00:27:04.181Z,1.10
2023-02-26T00:29:31.266Z,1.10
2023-02-26T00:31:58.516Z,1.10
2023-02-26T00:34:25.752Z,1.00
2023-02-26T00:37:03.603Z,1.10
2023-02-26T00:39:39.615Z,1.10
2023-02-26T00:42:06.809Z,1.10
2023-02-26T00:44:34.912Z,1.20
2023-02-26T00:47:04.922Z,1.10
2023-02-26T00:49:34.884Z,1.00
2023-02-26T00:52:03.453Z,1.10
2023-02-26T00:54:30.904Z,1.10
2023-02-26T00:56:58.694Z,1.00
2023-02-26T00:59:25.923Z,1.10
2023-02-26T01:01:53.230Z,1.20
2023-02-26T01:04:21.772Z,1.10
2023-02-26T01:06:50.208Z,1.00
2023-02-26T01:09:23.190Z,1.10
2023-02-26T01:11:50.327Z,1.10
2023-02-26T01:14:17.566Z,0.90
2023-02-26T01:16:50.558Z,0.80
2023-02-26T01:19:25.636Z,0.90
2023-02-26T01:21:56.569Z,0.80
2023-02-26T01:24:24.468Z,0.80
2023-02-26T01:26:51.494Z,0.90
2023-02-26T01:29:18.822Z,0.90
2023-02-26T01:31:50.952Z,1.00
2023-02-26T01:34:37.029Z,0.40
2023-02-26T01:37:23.287Z,1.10
2023-02-26T01:40:02.653Z,1.00
2023-02-26T01:42:31.866Z,1.00
2023-02-26T01:45:04.421Z,1.00
2023-02-26T01:47:46.886Z,1.00
2023-02-26T01:50:18.836Z,1.00
2023-02-26T01:52:48.916Z,0.90
2023-02-26T01:55:16.993Z,0.90
2023-02-26T01:57:44.233Z,0.90
2023-02-26T02:00:11.702Z,0.90
2023-02-26T02:02:41.864Z,0.90
2023-02-26T02:05:14.016Z,0.90
2023-02-26T02:07:41.020Z,0.90
2023-02-26T02:10:08.159Z,0.90
2023-02-26T02:12:51.343Z,1.00
2023-02-26T02:15:26.213Z,0.90
2023-02-26T02:17:56.229Z,0.90
2023-02-26T02:20:52.332Z,0.90
2023-02-26T02:23:25.789Z,0.90
2023-02-26T02:26:12.493Z,0.90
2023-02-26T02:28:59.020Z,0.90
2023-02-26T02:31:28.442Z,1.00
2023-02-26T02:34:00.351Z,1.00
2023-02-26T02:36:38.410Z,0.80
2023-02-26T02:39:14.024Z,0.90
2023-02-26T02:41:44.155Z,0.90
2023-02-26T02:44:13.328Z,1.00
2023-02-26T02:46:42.632Z,1.00
2023-02-26T02:49:12.764Z,1.00
2023-02-26T02:51:42.420Z,1.00
2023-02-26T02:54:29.416Z,1.00
2023-02-26T02:57:02.750Z,1.00
2023-02-26T02:59:29.663Z,1.00
2023-02-26T03:02:15.659Z,0.90
2023-02-26T03:04:42.911Z,0.90
2023-02-26T03:07:10.543Z,0.80
2023-02-26T03:09:37.490Z,0.90
2023-02-26T03:12:04.626Z,0.90
2023-02-26T03:14:32.666Z,0.90
2023-02-26T03:17:01.864Z,1.00
2023-02-26T03:19:46.256Z,1.00
2023-02-26T03:22:18.770Z,1.10
2023-02-26T03:25:06.496Z,1.00
2023-02-26T03:27:33.949Z,1.10
2023-02-26T03:30:16.317Z,1.10
2023-02-26T03:32:52.396Z,1.00
2023-02-26T03:35:26.982Z,1.00
2023-02-26T03:37:57.725Z,1.00
2023-02-26T03:40:30.578Z,0.90
2023-02-26T03:43:06.542Z,0.90
2023-02-26T03:45:35.654Z,0.90
2023-02-26T03:48:04.800Z,0.90
2023-02-26T03:50:35.201Z,0.90
2023-02-26T03:53:25.426Z,0.90
2023-02-26T03:56:32.831Z,0.90
2023-02-26T03:59:17.121Z,1.00
2023-02-26T04:01:47.882Z,0.90
2023-02-26T04:04:19.064Z,0.80
2023-02-26T04:06:46.923Z,0.90
2023-02-26T04:09:16.081Z,0.80
2023-02-26T04:11:43.818Z,0.80
2023-02-26T04:14:11.636Z,0.90
2023-02-26T04:16:42.208Z,0.90
2023-02-26T04:19:09.512Z,1.00
2023-02-26T04:21:37.542Z,0.90
2023-02-26T04:24:05.996Z,1.00
2023-02-26T04:26:34.756Z,0.90
2023-02-26T04:29:01.734Z,0.90
2023-02-26T04:31:29.867Z,0.80
2023-02-26T04:33:56.969Z,0.90
2023-02-26T04:36:24.410Z,0.90
2023-02-26T04:38:51.521Z,0.80
2023-02-26T04:41:19.019Z,0.90
2023-02-26T04:43:48.790Z,0.80
2023-02-26T04:46:36.194Z,0.80
2023-02-26T04:49:03.437Z,0.80
2023-02-26T04:51:30.417Z,0.80
2023-02-26T04:53:57.442Z,0.80
2023-02-26T04:56:24.881Z,0.90
2023-02-26T04:58:52.290Z,0.90
2023-02-26T05:01:24.935Z,0.80
2023-02-26T05:03:51.904Z,0.80
2023-02-26T05:06:18.881Z,0.80
2023-02-26T05:08:45.800Z,0.90
2023-02-26T05:11:13.022Z,0.80
2023-02-26T05:13:40.103Z,0.80
2023-02-26T05:16:07.482Z,0.70
2023-02-26T05:18:34.500Z,0.80
2023-02-26T05:21:02.263Z,0.70
2023-02-26T05:23:29.248Z,0.80
2023-02-26T05:25:57.236Z,0.80
2023-02-26T05:28:25.000Z,0.80
2023-02-26T05:30:52.394Z,0.80
2023-02-26T05:33:20.572Z,0.80
2023-02-26T05:35:48.346Z,0.80
2023-02-26T05:38:15.368Z,0.80
2023-02-26T05:40:42.332Z,0.80
2023-02-26T05:43:10.237Z,0.70
2023-02-26T05:45:37.233Z,0.70
2023-02-26T05:48:04.296Z,0.80
2023-02-26T05:50:31.386Z,0.80
2023-02-26T05:52:58.406Z,0.80
2023-02-26T05:55:25.345Z,0.80
2023-02-26T05:57:52.297Z,0.80
2023-02-26T06:00:19.435Z,0.90
2023-02-26T06:02:46.398Z,0.80
2023-02-26T06:05:13.560Z,0.90
2023-02-26T06:07:40.564Z,0.80
2023-02-26T06:10:08.739Z,0.80
2023-02-26T06:12:36.310Z,0.80
2023-02-26T06:15:03.710Z,0.90
2023-02-26T06:17:30.684Z,0.90
2023-02-26T06:19:57.634Z,0.60
2023-02-26T06:22:24.680Z,0.90
2023-02-26T06:24:51.705Z,0.90
2023-02-26T06:27:18.642Z,0.90
2023-02-26T06:29:45.620Z,0.90
2023-02-26T06:32:12.680Z,0.90
2023-02-26T06:34:39.645Z,0.90
2023-02-26T06:37:06.721Z,0.90
2023-02-26T06:39:33.676Z,1.00
2023-02-26T06:42:00.716Z,1.00
2023-02-26T06:44:27.680Z,1.00
2023-02-26T06:46:54.598Z,0.80
2023-02-26T06:49:21.568Z,0.90
2023-02-26T06:51:48.489Z,1.00
2023-02-26T06:54:15.466Z,1.00
2023-02-26T06:56:42.385Z,0.90
2023-02-26T06:59:09.366Z,0.90
2023-02-26T07:01:36.400Z,1.00
2023-02-26T07:04:03.351Z,1.00
2023-02-26T07:06:30.393Z,0.60
2023-02-26T07:08:57.318Z,0.90
2023-02-26T07:11:24.652Z,0.90
2023-02-26T07:13:52.186Z,1.00
2023-02-26T07:16:21.027Z,1.00
2023-02-26T07:18:47.959Z,1.10
2023-02-26T07:21:14.950Z,1.10
2023-02-26T07:23:41.871Z,1.00
2023-02-26T07:26:09.142Z,1.10
2023-02-26T07:28:36.382Z,1.10
2023-02-26T07:31:03.555Z,1.20
2023-02-26T07:33:31.972Z,1.20
2023-02-26T07:35:59.232Z,1.10
2023-02-26T07:38:26.180Z,1.20
2023-02-26T07:40:56.639Z,1.20
2023-02-26T07:43:24.241Z,1.30
2023-02-26T07:45:51.922Z,1.30
2023-02-26T07:48:18.892Z,1.20
2023-02-26T07:50:45.918Z,1.20
2023-02-26T07:53:13.232Z,1.10
2023-02-26T07:55:40.204Z,1.20
2023-02-26T07:58:07.171Z,1.30
2023-02-26T08:00:34.075Z,1.20
2023-02-26T08:03:01.048Z,1.30
2023-02-26T08:05:30.048Z,1.30
2023-02-26T08:07:57.265Z,1.20
2023-02-26T08:10:30.590Z,1.20
2023-02-26T08:12:57.593Z,1.20
2023-02-26T08:15:24.692Z,1.30
2023-02-26T08:17:54.706Z,1.20
2023-02-26T08:20:21.647Z,0.20
2023-02-26T08:22:48.719Z,1.10
2023-02-26T08:25:15.876Z,1.30
2023-02-26T08:27:43.065Z,1.30
2023-02-26T08:30:11.077Z,1.30
2023-02-26T08:32:39.958Z,1.40
2023-02-26T08:35:07.028Z,1.50
2023-02-26T08:37:33.990Z,1.50
2023-02-26T08:40:00.929Z,1.60
2023-02-26T08:42:27.809Z,1.60
2023-02-26T08:44:54.861Z,1.40
2023-02-26T08:47:28.418Z,1.50
2023-02-26T08:49:56.581Z,1.50
2023-02-26T08:52:23.548Z,1.50
2023-02-26T08:54:50.823Z,1.60
2023-02-26T08:57:17.884Z,1.50
2023-02-26T08:59:44.880Z,1.50
2023-02-26T09:02:12.221Z,1.40
2023-02-26T09:04:39.367Z,1.40
2023-02-26T09:07:06.537Z,1.50
2023-02-26T09:09:33.536Z,1.50
2023-02-26T09:12:00.519Z,1.60
2023-02-26T09:14:27.492Z,1.70
2023-02-26T09:16:54.527Z,1.70
2023-02-26T09:19:21.737Z,1.80
2023-02-26T09:21:48.685Z,1.80
2023-02-26T09:24:15.620Z,1.90
2023-02-26T09:26:42.856Z,1.80
2023-02-26T09:29:11.553Z,1.90
2023-02-26T09:31:38.716Z,1.70
2023-02-26T09:34:05.840Z,1.80
2023-02-26T09:36:33.853Z,1.80
2023-02-26T09:39:00.972Z,1.80
2023-02-26T09:41:39.110Z,1.80
2023-02-26T09:44:09.812Z,1.80
2023-02-26T09:46:43.035Z,1.90
2023-02-26T09:49:13.090Z,2.00
2023-02-26T09:51:40.446Z,2.10
2023-02-26T09:54:15.581Z,2.20
2023-02-26T09:56:43.646Z,1.50
2023-02-26T09:59:10.965Z,2.30
2023-02-26T10:01:59.839Z,2.30
2023-02-26T10:04:48.499Z,2.30
2023-02-26T10:07:20.477Z,2.30
2023-02-26T10:10:06.163Z,2.10
2023-02-26T10:12:35.331Z,2.20
2023-02-26T10:15:12.626Z,2.10
2023-02-26T10:17:42.773Z,2.10
2023-02-26T10:20:15.545Z,2.20
2023-02-26T10:22:53.241Z,2.20
2023-02-26T10:25:22.181Z,2.30
2023-02-26T10:27:55.308Z,2.20
2023-02-26T10:30:25.392Z,2.40
2023-02-26T10:32:55.435Z,2.40
2023-02-26T10:35:25.985Z,2.40
2023-02-26T10:38:04.826Z,2.40
2023-02-26T10:40:38.756Z,2.50
2023-02-26T10:43:15.052Z,2.50
2023-02-26T10:45:48.130Z,2.40
2023-02-26T10:48:23.298Z,2.40
2023-02-26T10:50:54.203Z,2.30
2023-02-26T10:53:21.988Z,2.40
2023-02-26T10:55:54.108Z,2.50
2023-02-26T10:58:23.098Z,2.40
2023-02-26T11:00:53.809Z,2.30
2023-02-26T11:03:22.273Z,2.20
2023-02-26T11:05:49.173Z,2.30
2023-02-26T11:08:19.491Z,2.70
2023-02-26T11:10:46.506Z,2.90
2023-02-26T11:13:13.402Z,3.00
2023-02-26T11:15:41.472Z,3.10
2023-02-26T11:18:12.476Z,3.20
2023-02-26T11:20:41.851Z,3.30
2023-02-26T11:23:12.321Z,3.20
2023-02-26T11:25:40.299Z,3.10
2023-02-26T11:28:30.079Z,3.00
2023-02-26T11:31:00.762Z,3.00
2023-02-26T11:33:29.739Z,2.90
2023-02-26T11:35:59.693Z,2.80
2023-02-26T11:38:27.309Z,2.70
2023-02-26T11:40:56.385Z,2.60
2023-02-26T11:43:25.091Z,2.60
2023-02-26T11:45:54.365Z,2.70
2023-02-26T11:48:44.448Z,2.70
2023-02-26T11:51:16.881Z,2.80
2023-02-26T11:53:49.340Z,2.80
2023-02-26T11:56:22.746Z,2.70
2023-02-26T11:58:53.277Z,2.80
2023-02-26T12:01:23.407Z,2.90
2023-02-26T12:03:53.298Z,3.10
2023-02-26T12:06:21.685Z,2.90
2023-02-26T12:08:48.882Z,3.10
2023-02-26T12:11:34.591Z,3.20
2023-02-26T12:14:10.710Z,3.10
2023-02-26T12:16:43.810Z,3.00
2023-02-26T12:19:29.065Z,2.30
2023-02-26T12:22:11.217Z,2.10
2023-02-26T12:24:41.197Z,1.90
2023-02-26T12:27:26.461Z,1.70
2023-02-26T12:29:57.604Z,1.90
2023-02-26T12:32:44.659Z,2.10
2023-02-26T12:35:12.518Z,2.20
2023-02-26T12:37:45.550Z,2.30
2023-02-26T12:40:31.034Z,2.50
2023-02-26T12:43:07.187Z,2.60
2023-02-26T12:45:34.080Z,2.50
2023-02-26T12:48:04.025Z,2.40
2023-02-26T12:50:43.652Z,2.30
2023-02-26T12:53:18.344Z,2.40
2023-02-26T12:55:45.253Z,2.40
2023-02-26T12:58:32.106Z,2.50
2023-02-26T13:01:22.167Z,2.60
2023-02-26T13:03:57.247Z,2.80
2023-02-26T13:06:43.044Z,2.80
2023-02-26T13:09:13.004Z,2.70
2023-02-26T13:11:52.195Z,2.60
2023-02-26T13:14:37.535Z,2.40
2023-02-26T13:17:09.809Z,2.30
2023-02-26T13:19:48.725Z,2.40
2023-02-26T13:22:15.640Z,2.70
2023-02-26T13:24:57.920Z,2.90
2023-02-26T13:27:27.663Z,3.20
2023-02-26T13:30:12.920Z,3.20
2023-02-26T13:32:41.151Z,3.00
2023-02-26T13:35:18.387Z,2.50
2023-02-26T13:37:51.381Z,2.40
2023-02-26T13:40:27.474Z,2.30
2023-02-26T13:43:03.158Z,2.30
2023-02-26T13:45:38.912Z,2.20
2023-02-26T13:48:18.289Z,2.30
2023-02-26T13:50:48.251Z,2.20
2023-02-26T13:53:24.613Z,2.30
2023-02-26T13:55:53.110Z,2.30
2023-02-26T13:58:23.111Z,2.30
2023-02-26T14:01:10.586Z,2.10
2023-02-26T14:03:50.387Z,1.30
2023-02-26T14:06:20.361Z,2.00
2023-02-26T14:08:49.362Z,2.00
2023-02-26T14:11:35.059Z,2.00
2023-02-26T14:14:19.247Z,2.10
2023-02-26T14:16:49.743Z,2.20
2023-02-26T14:19:22.186Z,2.20
2023-02-26T14:21:50.876Z,2.40
2023-02-26T14:24:36.976Z,2.50
2023-02-26T14:27:13.297Z,2.60
2023-02-26T14:29:40.180Z,2.70
2023-02-26T14:32:10.269Z,2.70
2023-02-26T14:34:42.363Z,2.70
2023-02-26T14:37:12.958Z,2.70
2023-02-26T14:39:42.685Z,2.80
2023-02-26T14:42:15.949Z,2.60
2023-02-26T14:44:44.524Z,2.60
2023-02-26T14:47:12.166Z,2.40
2023-02-26T14:49:43.726Z,2.40
2023-02-26T14:52:17.352Z,2.30
2023-02-26T14:54:57.265Z,2.20
2023-02-26T14:57:36.395Z,2.20
2023-02-26T15:00:12.421Z,2.10
2023-02-26T15:02:45.396Z,2.10
2023-02-26T15:05:12.397Z,1.40
2023-02-26T15:08:02.698Z,2.10
2023-02-26T15:10:40.243Z,2.10
2023-02-26T15:13:13.929Z,2.00
2023-02-26T15:15:53.310Z,1.90
2023-02-26T15:18:20.223Z,1.80
2023-02-26T15:21:13.716Z,1.60
2023-02-26T15:23:40.714Z,1.80
2023-02-26T15:26:08.914Z,1.90
2023-02-26T15:28:37.905Z,1.90
2023-02-26T15:31:06.510Z,1.90
2023-02-26T15:33:33.662Z,1.80
2023-02-26T15:36:01.385Z,1.70
2023-02-26T15:38:28.461Z,1.70
2023-02-26T15:40:58.193Z,1.60
2023-02-26T15:43:27.135Z,1.50
2023-02-26T15:45:55.740Z,1.50
2023-02-26T15:48:28.744Z,1.50
2023-02-26T15:51:01.630Z,1.50
2023-02-26T15:53:31.632Z,1.50
2023-02-26T15:56:00.276Z,1.50
2023-02-26T15:58:39.785Z,1.50
2023-02-26T16:01:07.443Z,1.50
2023-02-26T16:03:36.432Z,1.50
2023-02-26T16:06:04.077Z,1.50
2023-02-26T16:08:31.149Z,1.40
2023-02-26T16:10:59.909Z,1.40
2023-02-26T16:13:29.235Z,1.50
2023-02-26T16:15:59.259Z,1.40
2023-02-26T16:18:26.465Z,1.40
2023-02-26T16:20:55.914Z,1.30
2023-02-26T16:23:24.402Z,1.00
2023-02-26T16:25:53.295Z,1.30
2023-02-26T16:28:21.345Z,1.20
2023-02-26T16:30:49.500Z,1.20
2023-02-26T16:33:17.466Z,1.20
2023-02-26T16:35:47.131Z,1.10
2023-02-26T16:38:21.824Z,1.20
2023-02-26T16:40:56.339Z,1.20
2023-02-26T16:43:23.853Z,1.20
2023-02-26T16:45:52.163Z,1.20
2023-02-26T16:48:22.787Z,1.10
2023-02-26T16:51:15.959Z,1.10
2023-02-26T16:53:52.720Z,1.10
2023-02-26T16:56:22.532Z,1.10
2023-02-26T16:58:54.729Z,1.00
2023-02-26T17:01:22.916Z,1.00
2023-02-26T17:03:51.529Z,1.00
2023-02-26T17:06:19.777Z,1.00
2023-02-26T17:08:46.758Z,1.00
2023-02-26T17:11:23.041Z,1.00
2023-02-26T17:14:08.421Z,0.80
2023-02-26T17:16:35.689Z,0.90
2023-02-26T17:19:02.898Z,0.90
2023-02-26T17:21:30.180Z,0.90
2023-02-26T17:23:57.387Z,0.90
2023-02-26T17:26:25.111Z,0.90
2023-02-26T17:28:52.342Z,0.80
2023-02-26T17:31:19.371Z,0.80
2023-02-26T17:33:46.328Z,1.10
2023-02-26T17:36:14.906Z,0.80
2023-02-26T17:38:47.044Z,0.80
2023-02-26T17:41:18.449Z,0.70
2023-02-26T17:43:45.370Z,0.80
2023-02-26T17:46:12.700Z,0.80
2023-02-26T17:48:39.805Z,0.70
2023-02-26T17:51:07.419Z,0.80
2023-02-26T17:53:41.201Z,0.70
2023-02-26T17:56:14.899Z,0.80
2023-02-26T17:58:42.010Z,0.80
2023-02-26T18:01:10.330Z,0.80
2023-02-26T18:03:38.427Z,0.80
2023-02-26T18:06:05.869Z,0.90
2023-02-26T18:08:34.570Z,0.20
2023-02-26T18:11:02.227Z,0.80
2023-02-26T18:13:29.817Z,0.20
2023-02-26T18:15:58.269Z,1.00
2023-02-26T18:18:25.919Z,1.00
2023-02-26T18:20:53.242Z,1.00
2023-02-26T18:23:20.333Z,1.10
2023-02-26T18:25:48.467Z,1.10
2023-02-26T18:28:23.066Z,1.10
2023-02-26T18:30:50.843Z,1.10
2023-02-26T18:33:18.144Z,1.30
2023-02-26T18:35:47.126Z,1.10
2023-02-26T18:38:15.354Z,1.10
2023-02-26T18:40:42.918Z,1.20
2023-02-26T18:43:12.693Z,1.10
2023-02-26T18:45:40.480Z,1.10
2023-02-26T18:48:07.800Z,1.10
2023-02-26T18:50:35.524Z,1.20
2023-02-26T18:53:02.451Z,1.00
2023-02-26T18:55:29.490Z,1.10
2023-02-26T18:57:57.176Z,1.10
2023-02-26T19:00:24.292Z,1.10
2023-02-26T19:02:51.474Z,1.10
2023-02-26T19:05:23.462Z,1.00
2023-02-26T19:07:50.917Z,0.90
2023-02-26T19:10:18.721Z,0.90
2023-02-26T19:12:46.024Z,0.60
2023-02-26T19:15:13.309Z,0.80
2023-02-26T19:17:40.792Z,-0.90
2023-02-26T19:20:08.328Z,0.80
2023-02-26T19:22:35.338Z,0.80
2023-02-26T19:25:02.382Z,0.80
2023-02-26T19:27:29.357Z,0.80
2023-02-26T19:29:56.379Z,0.90
2023-02-26T19:32:23.786Z,0.90
2023-02-26T19:34:50.813Z,0.90
2023-02-26T19:37:17.794Z,0.90
2023-02-26T19:39:44.707Z,0.80
2023-02-26T19:42:11.741Z,0.90
2023-02-26T19:44:38.635Z,0.90
2023-02-26T19:47:05.924Z,0.90
2023-02-26T19:49:32.898Z,0.90
2023-02-26T19:51:59.851Z,0.90
2023-02-26T19:54:26.799Z,0.90
2023-02-26T19:56:53.764Z,0.90
2023-02-26T19:59:20.681Z,0.90
2023-02-26T20:01:49.738Z,0.90
2023-02-26T20:04:17.405Z,0.90
2023-02-26T20:06:45.143Z,0.80
2023-02-26T20:09:12.844Z,0.80
2023-02-26T20:11:39.920Z,0.80
2023-02-26T20:14:07.097Z,0.80
2023-02-26T20:16:34.285Z,0.80
2023-02-26T20:19:01.314Z,0.90
2023-02-26T20:21:28.589Z,0.90
2023-02-26T20:23:56.917Z,0.90
2023-02-26T20:26:24.044Z,0.90
2023-02-26T20:28:51.135Z,0.90
2023-02-26T20:31:18.165Z,0.90
2023-02-26T20:33:45.190Z,0.90
2023-02-26T20:36:12.261Z,0.90
2023-02-26T20:38:39.253Z,0.90
2023-02-26T20:41:06.222Z,0.90
2023-02-26T20:43:33.324Z,0.90
2023-02-26T20:46:00.377Z,0.80
2023-02-26T20:48:27.590Z,0.90
2023-02-26T20:51:01.918Z,0.90
2023-02-26T20:53:29.020Z,1.00
2023-02-26T20:55:56.470Z,1.00
2023-02-26T20:58:23.953Z,1.10
2023-02-26T21:00:51.590Z,0.90
2023-02-26T21:03:18.580Z,1.10
2023-02-26T21:05:46.956Z,1.10
2023-02-26T21:08:14.095Z,1.10
2023-02-26T21:10:41.339Z,1.10
2023-02-26T21:13:09.106Z,1.10
2023-02-26T21:15:36.494Z,1.00
2023-02-26T21:18:03.500Z,1.10
2023-02-26T21:20:30.880Z,1.10
2023-02-26T21:22:58.878Z,1.10
2023-02-26T21:25:25.930Z,1.10
2023-02-26T21:27:53.186Z,1.10
2023-02-26T21:30:20.129Z,1.10
2023-02-26T21:32:47.159Z,1.10
2023-02-26T21:35:16.237Z,1.10
2023-02-26T21:37:44.011Z,1.10
2023-02-26T21:40:11.758Z,1.10
2023-02-26T21:42:38.696Z,1.00
2023-02-26T21:45:05.773Z,1.00
2023-02-26T21:47:33.078Z,1.00
2023-02-26T21:50:00.013Z,1.00
2023-02-26T21:52:29.005Z,1.00
2023-02-26T21:54:59.663Z,1.00
2023-02-26T21:57:27.226Z,1.00
2023-02-26T21:59:54.216Z,1.00
2023-02-26T22:02:21.277Z,0.90
2023-02-26T22:04:48.260Z,1.00
2023-02-26T22:07:15.367Z,0.90
2023-02-26T22:09:44.723Z,0.90
2023-02-26T22:12:13.102Z,0.90
2023-02-26T22:14:39.993Z,0.90
2023-02-26T22:17:06.964Z,0.90
2023-02-26T22:19:34.007Z,0.90
2023-02-26T22:22:00.989Z,0.90
2023-02-26T22:24:28.061Z,0.90
2023-02-26T22:26:55.129Z,0.70
2023-02-26T22:29:22.727Z,0.80
2023-02-26T22:31:49.822Z,0.80
2023-02-26T22:34:16.845Z,0.80
2023-02-26T22:36:43.783Z,0.80
2023-02-26T22:39:10.833Z,0.80
2023-02-26T22:41:37.915Z,0.80
2023-02-26T22:44:04.985Z,0.80
2023-02-26T22:46:32.558Z,0.80
2023-02-26T22:48:59.532Z,0.90
2023-02-26T22:51:28.588Z,0.80
2023-02-26T22:53:56.020Z,0.90
2023-02-26T22:56:22.967Z,0.90
2023-02-26T22:58:49.936Z,0.90
2023-02-26T23:01:17.046Z,0.90
2023-02-26T23:03:44.005Z,0.90
2023-02-26T23:06:11.098Z,0.90
2023-02-26T23:08:38.160Z,0.90
2023-02-26T23:11:05.679Z,1.00
2023-02-26T23:13:34.371Z,0.90
2023-02-26T23:16:05.699Z,0.90
2023-02-26T23:18:34.208Z,1.00
2023-02-26T23:21:01.173Z,1.00
2023-02-26T23:23:28.070Z,1.00
2023-02-26T23:25:55.274Z,0.90
2023-02-26T23:28:24.960Z,0.90
2023-02-26T23:30:52.363Z,0.90
2023-02-26T23:33:19.304Z,0.90
2023-02-26T23:35:46.287Z,0.90
2023-02-26T23:38:13.266Z,0.90
2023-02-26T23:40:40.269Z,0.90
2023-02-26T23:43:07.214Z,0.90
2023-02-26T23:45:34.445Z,1.00
2023-02-26T23:48:01.430Z,1.00
2023-02-26T23:50:28.392Z,1.00
2023-02-26T23:52:55.349Z,1.00
2023-02-26T23:55:22.438Z,1.00
2023-02-26T23:57:49.496Z,1.00
